sensor_id;sensor_type;location;lat;lon;timestamp;temperature;humidity
16964;DHT22;8598;50.508;10.436;2023-10-09T00:01:51;11.80;99.90
16964;DHT22;8598;50.508;10.436;2023-10-09T00:04:19;11.70;99.90
16964;DHT22;8598;50.508;10.436;2023-10-09T00:06:46;11.70;99.90
16964;DHT22;8598;50.508;10.436;2023-10-09T00:09:14;11.70;99.90
16964;DHT22;8598;50.508;10.436;2023-10-09T00:11:45;11.60;99.90
16964;DHT22;8598;50.508;10.436;2023-10-09T00:14:15;11.60;99.90
16964;DHT22;8598;50.508;10.436;2023-10-09T00:16:44;11.60;99.90
16964;DHT22;8598;50.508;10.436;2023-10-09T00:19:14;11.50;99.90
16964;DHT22;8598;50.508;10.436;2023-10-09T00:21:43;11.50;99.90
16964;DHT22;8598;50.508;10.436;2023-10-09T00:24:11;11.50;99.90
16964;DHT22;8598;50.508;10.436;2023-10-09T00:26:49;11.60;99.90
16964;DHT22;8598;50.508;10.436;2023-10-09T00:29:18;11.40;99.90
16964;DHT22;8598;50.508;10.436;2023-10-09T00:31:49;11.40;99.90
16964;DHT22;8598;50.508;10.436;2023-10-09T00:34:30;11.30;99.90
16964;DHT22;8598;50.508;10.436;2023-10-09T00:37:05;11.30;99.90
16964;DHT22;8598;50.508;10.436;2023-10-09T00:39:36;11.30;99.90
16964;DHT22;8598;50.508;10.436;2023-10-09T00:42:09;11.30;99.90
16964;DHT22;8598;50.508;10.436;2023-10-09T00:44:41;11.20;99.90
16964;DHT22;8598;50.508;10.436;2023-10-09T00:47:09;11.20;99.90
16964;DHT22;8598;50.508;10.436;2023-10-09T00:49:50;11.20;99.90
16964;DHT22;8598;50.508;10.436;2023-10-09T00:52:20;11.10;99.90
16964;DHT22;8598;50.508;10.436;2023-10-09T00:54:57;11.10;99.90
16964;DHT22;8598;50.508;10.436;2023-10-09T00:57:29;11.00;99.90
16964;DHT22;8598;50.508;10.436;2023-10-09T01:00:00;10.90;99.90
16964;DHT22;8598;50.508;10.436;2023-10-09T01:02:38;10.80;99.90
16964;DHT22;8598;50.508;10.436;2023-10-09T01:05:09;10.70;99.90
16964;DHT22;8598;50.508;10.436;2023-10-09T01:07:45;10.60;99.90
16964;DHT22;8598;50.508;10.436;2023-10-09T01:10:14;10.70;99.90
16964;DHT22;8598;50.508;10.436;2023-10-09T01:12:42;10.60;99.90
16964;DHT22;8598;50.508;10.436;2023-10-09T01:15:13;10.50;99.90
16964;DHT22;8598;50.508;10.436;2023-10-09T01:18:02;10.50;99.90
16964;DHT22;8598;50.508;10.436;2023-10-09T01:20:33;10.40;99.90
16964;DHT22;8598;50.508;10.436;2023-10-09T01:23:09;10.20;99.90
16964;DHT22;8598;50.508;10.436;2023-10-09T01:25:36;10.10;99.90
16964;DHT22;8598;50.508;10.436;2023-10-09T01:28:10;10.00;99.90
16964;DHT22;8598;50.508;10.436;2023-10-09T01:30:42;10.00;99.90
16964;DHT22;8598;50.508;10.436;2023-10-09T01:33:09;10.00;99.90
16964;DHT22;8598;50.508;10.436;2023-10-09T01:35:48;9.90;99.90
16964;DHT22;8598;50.508;10.436;2023-10-09T01:38:19;9.70;99.90
16964;DHT22;8598;50.508;10.436;2023-10-09T01:40:56;9.60;99.90
16964;DHT22;8598;50.508;10.436;2023-10-09T01:43:30;9.60;99.90
16964;DHT22;8598;50.508;10.436;2023-10-09T01:45:59;9.60;99.90
16964;DHT22;8598;50.508;10.436;2023-10-09T01:48:30;9.50;99.90
16964;DHT22;8598;50.508;10.436;2023-10-09T01:51:01;9.40;99.90
16964;DHT22;8598;50.508;10.436;2023-10-09T01:53:31;9.40;99.90
16964;DHT22;8598;50.508;10.436;2023-10-09T01:56:08;9.30;99.90
16964;DHT22;8598;50.508;10.436;2023-10-09T01:58:41;9.30;99.90
16964;DHT22;8598;50.508;10.436;2023-10-09T02:01:08;9.30;99.90
16964;DHT22;8598;50.508;10.436;2023-10-09T02:03:36;9.20;99.90
16964;DHT22;8598;50.508;10.436;2023-10-09T02:06:04;9.20;99.90
16964;DHT22;8598;50.508;10.436;2023-10-09T02:08:52;9.10;99.90
16964;DHT22;8598;50.508;10.436;2023-10-09T02:11:19;9.10;99.90
16964;DHT22;8598;50.508;10.436;2023-10-09T02:14:01;9.00;99.90
16964;DHT22;8598;50.508;10.436;2023-10-09T02:16:30;9.10;99.90
16964;DHT22;8598;50.508;10.436;2023-10-09T02:19:07;9.10;99.90
16964;DHT22;8598;50.508;10.436;2023-10-09T02:21:54;9.00;99.90
16964;DHT22;8598;50.508;10.436;2023-10-09T02:24:24;9.00;99.90
16964;DHT22;8598;50.508;10.436;2023-10-09T02:27:15;9.30;99.90
16964;DHT22;8598;50.508;10.436;2023-10-09T02:29:48;9.00;99.90
16964;DHT22;8598;50.508;10.436;2023-10-09T02:32:15;9.00;99.90
16964;DHT22;8598;50.508;10.436;2023-10-09T02:34:50;8.90;99.90
16964;DHT22;8598;50.508;10.436;2023-10-09T02:37:19;8.90;99.90
16964;DHT22;8598;50.508;10.436;2023-10-09T02:39:50;8.90;99.90
16964;DHT22;8598;50.508;10.436;2023-10-09T02:42:18;8.90;99.90
16964;DHT22;8598;50.508;10.436;2023-10-09T02:44:52;9.00;99.90
16964;DHT22;8598;50.508;10.436;2023-10-09T02:47:21;9.00;99.90
16964;DHT22;8598;50.508;10.436;2023-10-09T02:49:50;8.90;99.90
16964;DHT22;8598;50.508;10.436;2023-10-09T02:52:18;8.80;99.90
16964;DHT22;8598;50.508;10.436;2023-10-09T02:54:52;8.80;99.90
16964;DHT22;8598;50.508;10.436;2023-10-09T02:57:26;8.90;99.90
16964;DHT22;8598;50.508;10.436;2023-10-09T03:00:02;8.80;99.90
16964;DHT22;8598;50.508;10.436;2023-10-09T03:02:29;8.80;99.90
16964;DHT22;8598;50.508;10.436;2023-10-09T03:04:57;8.80;99.90
16964;DHT22;8598;50.508;10.436;2023-10-09T03:07:25;8.80;99.90
16964;DHT22;8598;50.508;10.436;2023-10-09T03:09:53;8.80;99.90
16964;DHT22;8598;50.508;10.436;2023-10-09T03:12:21;8.90;99.90
16964;DHT22;8598;50.508;10.436;2023-10-09T03:14:52;8.90;99.90
16964;DHT22;8598;50.508;10.436;2023-10-09T03:17:20;8.80;99.90
16964;DHT22;8598;50.508;10.436;2023-10-09T03:19:48;8.80;99.90
16964;DHT22;8598;50.508;10.436;2023-10-09T03:22:15;8.80;99.90
16964;DHT22;8598;50.508;10.436;2023-10-09T03:24:41;8.80;99.90
16964;DHT22;8598;50.508;10.436;2023-10-09T03:27:11;8.80;99.90
16964;DHT22;8598;50.508;10.436;2023-10-09T03:29:39;8.70;99.90
16964;DHT22;8598;50.508;10.436;2023-10-09T03:32:07;8.70;99.90
16964;DHT22;8598;50.508;10.436;2023-10-09T03:34:34;8.70;99.90
16964;DHT22;8598;50.508;10.436;2023-10-09T03:37:01;8.60;99.90
16964;DHT22;8598;50.508;10.436;2023-10-09T03:39:36;8.60;99.90
16964;DHT22;8598;50.508;10.436;2023-10-09T03:42:06;8.70;99.90
16964;DHT22;8598;50.508;10.436;2023-10-09T03:44:38;8.70;99.90
16964;DHT22;8598;50.508;10.436;2023-10-09T03:47:08;8.70;99.90
16964;DHT22;8598;50.508;10.436;2023-10-09T03:49:37;8.70;99.90
16964;DHT22;8598;50.508;10.436;2023-10-09T03:52:04;8.70;99.90
16964;DHT22;8598;50.508;10.436;2023-10-09T03:54:32;8.70;99.90
16964;DHT22;8598;50.508;10.436;2023-10-09T03:57:00;8.70;99.90
16964;DHT22;8598;50.508;10.436;2023-10-09T03:59:28;8.80;99.90
16964;DHT22;8598;50.508;10.436;2023-10-09T04:01:58;8.90;99.90
16964;DHT22;8598;50.508;10.436;2023-10-09T04:04:25;9.00;99.90
16964;DHT22;8598;50.508;10.436;2023-10-09T04:06:54;9.00;99.90
16964;DHT22;8598;50.508;10.436;2023-10-09T04:09:21;9.10;99.90
16964;DHT22;8598;50.508;10.436;2023-10-09T04:12:01;9.10;99.90
16964;DHT22;8598;50.508;10.436;2023-10-09T04:14:46;9.20;99.90
16964;DHT22;8598;50.508;10.436;2023-10-09T04:17:21;9.20;99.90
16964;DHT22;8598;50.508;10.436;2023-10-09T04:20:00;9.30;99.90
16964;DHT22;8598;50.508;10.436;2023-10-09T04:22:45;9.30;99.90
16964;DHT22;8598;50.508;10.436;2023-10-09T04:25:16;9.40;99.90
16964;DHT22;8598;50.508;10.436;2023-10-09T04:27:51;9.40;99.90
16964;DHT22;8598;50.508;10.436;2023-10-09T04:30:18;9.50;99.90
16964;DHT22;8598;50.508;10.436;2023-10-09T04:32:50;9.50;99.90
16964;DHT22;8598;50.508;10.436;2023-10-09T04:35:20;9.50;99.90
16964;DHT22;8598;50.508;10.436;2023-10-09T04:37:49;9.60;99.90
16964;DHT22;8598;50.508;10.436;2023-10-09T04:40:26;9.60;99.90
16964;DHT22;8598;50.508;10.436;2023-10-09T04:43:19;9.60;99.90
16964;DHT22;8598;50.508;10.436;2023-10-09T04:45:51;9.70;99.90
16964;DHT22;8598;50.508;10.436;2023-10-09T04:48:34;9.70;99.90
16964;DHT22;8598;50.508;10.436;2023-10-09T04:51:05;9.80;99.90
16964;DHT22;8598;50.508;10.436;2023-10-09T04:54:00;9.80;99.90
16964;DHT22;8598;50.508;10.436;2023-10-09T04:56:39;9.80;99.90
16964;DHT22;8598;50.508;10.436;2023-10-09T04:59:19;9.80;99.90
16964;DHT22;8598;50.508;10.436;2023-10-09T05:01:50;9.90;99.90
16964;DHT22;8598;50.508;10.436;2023-10-09T05:04:24;10.00;99.90
16964;DHT22;8598;50.508;10.436;2023-10-09T05:07:05;10.00;99.90
16964;DHT22;8598;50.508;10.436;2023-10-09T05:09:49;10.00;99.90
16964;DHT22;8598;50.508;10.436;2023-10-09T05:12:21;10.10;99.90
16964;DHT22;8598;50.508;10.436;2023-10-09T05:14:55;10.10;99.90
16964;DHT22;8598;50.508;10.436;2023-10-09T05:17:32;10.10;99.90
16964;DHT22;8598;50.508;10.436;2023-10-09T05:20:00;10.10;99.90
16964;DHT22;8598;50.508;10.436;2023-10-09T05:22:40;10.10;99.90
16964;DHT22;8598;50.508;10.436;2023-10-09T05:25:18;10.20;99.90
16964;DHT22;8598;50.508;10.436;2023-10-09T05:28:06;10.20;99.90
16964;DHT22;8598;50.508;10.436;2023-10-09T05:30:48;10.20;99.90
16964;DHT22;8598;50.508;10.436;2023-10-09T05:33:20;10.30;99.90
16964;DHT22;8598;50.508;10.436;2023-10-09T05:36:00;10.30;99.90
16964;DHT22;8598;50.508;10.436;2023-10-09T05:38:56;10.30;99.90
16964;DHT22;8598;50.508;10.436;2023-10-09T05:41:43;10.30;99.90
16964;DHT22;8598;50.508;10.436;2023-10-09T05:44:13;10.30;99.90
16964;DHT22;8598;50.508;10.436;2023-10-09T05:46:58;10.30;99.90
16964;DHT22;8598;50.508;10.436;2023-10-09T05:49:45;10.40;99.90
16964;DHT22;8598;50.508;10.436;2023-10-09T05:52:41;10.40;99.90
16964;DHT22;8598;50.508;10.436;2023-10-09T05:55:27;10.40;99.90
16964;DHT22;8598;50.508;10.436;2023-10-09T05:58:11;10.50;99.90
16964;DHT22;8598;50.508;10.436;2023-10-09T06:00:55;10.50;99.90
16964;DHT22;8598;50.508;10.436;2023-10-09T06:03:41;10.50;99.90
16964;DHT22;8598;50.508;10.436;2023-10-09T06:06:21;10.60;99.90
16964;DHT22;8598;50.508;10.436;2023-10-09T06:09:03;10.70;99.90
16964;DHT22;8598;50.508;10.436;2023-10-09T06:11:54;10.70;99.90
16964;DHT22;8598;50.508;10.436;2023-10-09T06:14:37;10.70;99.90
16964;DHT22;8598;50.508;10.436;2023-10-09T06:17:23;10.70;99.90
16964;DHT22;8598;50.508;10.436;2023-10-09T06:19:51;10.80;99.90
16964;DHT22;8598;50.508;10.436;2023-10-09T06:22:24;10.80;99.90
16964;DHT22;8598;50.508;10.436;2023-10-09T06:25:09;10.80;99.90
16964;DHT22;8598;50.508;10.436;2023-10-09T06:27:37;10.80;99.90
16964;DHT22;8598;50.508;10.436;2023-10-09T06:30:21;10.90;99.90
16964;DHT22;8598;50.508;10.436;2023-10-09T06:32:52;10.90;99.90
16964;DHT22;8598;50.508;10.436;2023-10-09T06:35:25;10.90;99.90
16964;DHT22;8598;50.508;10.436;2023-10-09T06:37:58;10.90;99.90
16964;DHT22;8598;50.508;10.436;2023-10-09T06:40:49;10.90;99.90
16964;DHT22;8598;50.508;10.436;2023-10-09T06:43:33;10.90;99.90
16964;DHT22;8598;50.508;10.436;2023-10-09T06:46:15;11.00;99.90
16964;DHT22;8598;50.508;10.436;2023-10-09T06:48:58;10.90;99.90
16964;DHT22;8598;50.508;10.436;2023-10-09T06:51:26;11.00;99.90
16964;DHT22;8598;50.508;10.436;2023-10-09T06:54:08;11.10;99.90
16964;DHT22;8598;50.508;10.436;2023-10-09T06:56:35;11.10;99.90
16964;DHT22;8598;50.508;10.436;2023-10-09T06:59:19;11.10;99.90
16964;DHT22;8598;50.508;10.436;2023-10-09T07:01:50;11.10;99.90
16964;DHT22;8598;50.508;10.436;2023-10-09T07:04:30;11.10;99.90
16964;DHT22;8598;50.508;10.436;2023-10-09T07:07:24;11.20;99.90
16964;DHT22;8598;50.508;10.436;2023-10-09T07:09:52;11.20;99.90
16964;DHT22;8598;50.508;10.436;2023-10-09T07:12:36;11.20;99.90
16964;DHT22;8598;50.508;10.436;2023-10-09T07:15:09;11.30;99.90
16964;DHT22;8598;50.508;10.436;2023-10-09T07:17:50;11.40;99.90
16964;DHT22;8598;50.508;10.436;2023-10-09T07:20:18;11.40;99.90
16964;DHT22;8598;50.508;10.436;2023-10-09T07:23:00;11.50;99.90
16964;DHT22;8598;50.508;10.436;2023-10-09T07:25:40;11.50;99.90
16964;DHT22;8598;50.508;10.436;2023-10-09T07:28:09;11.50;99.90
16964;DHT22;8598;50.508;10.436;2023-10-09T07:30:55;11.60;99.90
16964;DHT22;8598;50.508;10.436;2023-10-09T07:33:23;11.70;99.90
16964;DHT22;8598;50.508;10.436;2023-10-09T07:36:01;11.70;99.90
16964;DHT22;8598;50.508;10.436;2023-10-09T07:38:33;11.80;99.90
16964;DHT22;8598;50.508;10.436;2023-10-09T07:41:03;12.00;99.90
16964;DHT22;8598;50.508;10.436;2023-10-09T07:43:44;12.10;99.90
16964;DHT22;8598;50.508;10.436;2023-10-09T07:46:13;12.10;99.90
16964;DHT22;8598;50.508;10.436;2023-10-09T07:48:59;12.10;99.90
16964;DHT22;8598;50.508;10.436;2023-10-09T07:51:26;12.10;99.90
16964;DHT22;8598;50.508;10.436;2023-10-09T07:53:58;12.10;99.90
16964;DHT22;8598;50.508;10.436;2023-10-09T07:56:32;12.20;99.90
16964;DHT22;8598;50.508;10.436;2023-10-09T07:59:04;12.20;99.90
16964;DHT22;8598;50.508;10.436;2023-10-09T08:01:37;12.30;99.90
16964;DHT22;8598;50.508;10.436;2023-10-09T08:04:04;12.40;99.90
16964;DHT22;8598;50.508;10.436;2023-10-09T08:06:37;12.50;99.90
16964;DHT22;8598;50.508;10.436;2023-10-09T08:09:09;12.50;99.90
16964;DHT22;8598;50.508;10.436;2023-10-09T08:12:04;12.60;99.90
16964;DHT22;8598;50.508;10.436;2023-10-09T08:14:45;12.70;99.90
16964;DHT22;8598;50.508;10.436;2023-10-09T08:17:14;12.80;99.90
16964;DHT22;8598;50.508;10.436;2023-10-09T08:19:42;12.90;99.90
16964;DHT22;8598;50.508;10.436;2023-10-09T08:22:28;12.90;99.90
16964;DHT22;8598;50.508;10.436;2023-10-09T08:25:11;13.00;99.90
16964;DHT22;8598;50.508;10.436;2023-10-09T08:27:55;12.90;99.90
16964;DHT22;8598;50.508;10.436;2023-10-09T08:30:21;13.00;99.90
16964;DHT22;8598;50.508;10.436;2023-10-09T08:33:05;13.00;99.90
16964;DHT22;8598;50.508;10.436;2023-10-09T08:35:54;13.00;99.90
16964;DHT22;8598;50.508;10.436;2023-10-09T08:38:27;13.10;99.90
16964;DHT22;8598;50.508;10.436;2023-10-09T08:41:08;13.10;99.90
16964;DHT22;8598;50.508;10.436;2023-10-09T08:43:47;13.10;99.90
16964;DHT22;8598;50.508;10.436;2023-10-09T08:46:19;13.20;99.90
16964;DHT22;8598;50.508;10.436;2023-10-09T08:48:46;13.30;99.90
16964;DHT22;8598;50.508;10.436;2023-10-09T08:51:13;13.40;99.90
16964;DHT22;8598;50.508;10.436;2023-10-09T08:53:42;13.60;99.90
16964;DHT22;8598;50.508;10.436;2023-10-09T08:56:12;13.60;99.90
16964;DHT22;8598;50.508;10.436;2023-10-09T08:58:45;13.70;99.90
16964;DHT22;8598;50.508;10.436;2023-10-09T09:01:16;13.70;99.90
16964;DHT22;8598;50.508;10.436;2023-10-09T09:03:45;13.70;99.90
16964;DHT22;8598;50.508;10.436;2023-10-09T09:06:12;13.80;99.90
16964;DHT22;8598;50.508;10.436;2023-10-09T09:08:40;13.70;99.90
16964;DHT22;8598;50.508;10.436;2023-10-09T09:11:13;13.70;99.90
16964;DHT22;8598;50.508;10.436;2023-10-09T09:13:44;13.80;99.90
16964;DHT22;8598;50.508;10.436;2023-10-09T09:16:18;14.00;99.90
16964;DHT22;8598;50.508;10.436;2023-10-09T09:18:53;14.10;99.90
16964;DHT22;8598;50.508;10.436;2023-10-09T09:21:26;14.30;99.90
16964;DHT22;8598;50.508;10.436;2023-10-09T09:23:55;14.40;99.90
16964;DHT22;8598;50.508;10.436;2023-10-09T09:26:36;14.50;99.90
16964;DHT22;8598;50.508;10.436;2023-10-09T09:29:04;14.60;99.90
16964;DHT22;8598;50.508;10.436;2023-10-09T09:31:32;14.80;99.90
16964;DHT22;8598;50.508;10.436;2023-10-09T09:34:04;14.90;99.90
16964;DHT22;8598;50.508;10.436;2023-10-09T09:36:49;15.00;99.90
16964;DHT22;8598;50.508;10.436;2023-10-09T09:39:21;15.30;99.90
16964;DHT22;8598;50.508;10.436;2023-10-09T09:41:56;15.30;99.90
16964;DHT22;8598;50.508;10.436;2023-10-09T09:44:30;15.50;99.90
16964;DHT22;8598;50.508;10.436;2023-10-09T09:46:59;15.30;99.90
16964;DHT22;8598;50.508;10.436;2023-10-09T09:49:27;15.30;99.90
16964;DHT22;8598;50.508;10.436;2023-10-09T09:52:01;15.10;99.90
16964;DHT22;8598;50.508;10.436;2023-10-09T09:54:28;14.90;99.90
16964;DHT22;8598;50.508;10.436;2023-10-09T09:57:02;14.90;99.90
16964;DHT22;8598;50.508;10.436;2023-10-09T09:59:38;15.00;99.90
16964;DHT22;8598;50.508;10.436;2023-10-09T10:02:18;15.00;99.90
16964;DHT22;8598;50.508;10.436;2023-10-09T10:04:53;15.10;99.90
16964;DHT22;8598;50.508;10.436;2023-10-09T10:07:22;15.20;99.90
16964;DHT22;8598;50.508;10.436;2023-10-09T10:09:50;15.20;99.90
16964;DHT22;8598;50.508;10.436;2023-10-09T10:12:50;15.20;99.90
16964;DHT22;8598;50.508;10.436;2023-10-09T10:18:22;15.30;99.90
16964;DHT22;8598;50.508;10.436;2023-10-09T10:21:15;15.20;99.90
16964;DHT22;8598;50.508;10.436;2023-10-09T10:23:58;15.20;99.90
16964;DHT22;8598;50.508;10.436;2023-10-09T10:26:35;15.10;99.90
16964;DHT22;8598;50.508;10.436;2023-10-09T10:29:17;15.10;99.90
16964;DHT22;8598;50.508;10.436;2023-10-09T10:31:53;15.10;99.90
16964;DHT22;8598;50.508;10.436;2023-10-09T10:34:21;15.10;99.90
16964;DHT22;8598;50.508;10.436;2023-10-09T10:36:49;15.10;99.90
16964;DHT22;8598;50.508;10.436;2023-10-09T10:39:18;15.00;99.90
16964;DHT22;8598;50.508;10.436;2023-10-09T10:42:01;15.00;99.90
16964;DHT22;8598;50.508;10.436;2023-10-09T10:44:33;14.90;99.90
16964;DHT22;8598;50.508;10.436;2023-10-09T10:47:04;14.80;99.90
16964;DHT22;8598;50.508;10.436;2023-10-09T10:49:43;14.90;99.90
16964;DHT22;8598;50.508;10.436;2023-10-09T10:52:20;15.00;99.90
16964;DHT22;8598;50.508;10.436;2023-10-09T10:54:47;15.10;99.90
16964;DHT22;8598;50.508;10.436;2023-10-09T10:57:35;15.20;99.90
16964;DHT22;8598;50.508;10.436;2023-10-09T11:00:20;15.20;99.90
16964;DHT22;8598;50.508;10.436;2023-10-09T11:03:04;15.30;99.90
16964;DHT22;8598;50.508;10.436;2023-10-09T11:05:43;15.30;99.90
16964;DHT22;8598;50.508;10.436;2023-10-09T11:08:16;15.40;99.90
16964;DHT22;8598;50.508;10.436;2023-10-09T11:10:48;15.50;99.90
16964;DHT22;8598;50.508;10.436;2023-10-09T11:13:23;15.50;99.90
16964;DHT22;8598;50.508;10.436;2023-10-09T11:16:04;15.50;99.90
16964;DHT22;8598;50.508;10.436;2023-10-09T11:18:45;15.40;99.90
16964;DHT22;8598;50.508;10.436;2023-10-09T11:21:14;15.50;99.90
16964;DHT22;8598;50.508;10.436;2023-10-09T11:23:58;15.60;99.90
16964;DHT22;8598;50.508;10.436;2023-10-09T11:26:25;15.50;99.90
16964;DHT22;8598;50.508;10.436;2023-10-09T11:29:10;15.60;99.90
16964;DHT22;8598;50.508;10.436;2023-10-09T11:31:41;15.70;99.90
16964;DHT22;8598;50.508;10.436;2023-10-09T11:34:20;15.90;99.90
16964;DHT22;8598;50.508;10.436;2023-10-09T11:36:56;16.00;99.90
16964;DHT22;8598;50.508;10.436;2023-10-09T11:39:25;15.90;99.90
16964;DHT22;8598;50.508;10.436;2023-10-09T11:42:06;16.00;99.90
16964;DHT22;8598;50.508;10.436;2023-10-09T11:44:38;16.20;99.90
16964;DHT22;8598;50.508;10.436;2023-10-09T11:47:06;16.40;99.90
16964;DHT22;8598;50.508;10.436;2023-10-09T11:49:59;16.60;99.90
16964;DHT22;8598;50.508;10.436;2023-10-09T11:52:56;16.80;99.90
16964;DHT22;8598;50.508;10.436;2023-10-09T11:55:35;16.90;99.90
16964;DHT22;8598;50.508;10.436;2023-10-09T11:58:03;16.90;99.90
16964;DHT22;8598;50.508;10.436;2023-10-09T12:00:32;16.90;99.90
16964;DHT22;8598;50.508;10.436;2023-10-09T12:03:11;16.80;99.90
16964;DHT22;8598;50.508;10.436;2023-10-09T12:05:38;16.70;99.90
16964;DHT22;8598;50.508;10.436;2023-10-09T12:08:09;16.90;99.90
16964;DHT22;8598;50.508;10.436;2023-10-09T12:10:36;16.80;99.90
16964;DHT22;8598;50.508;10.436;2023-10-09T12:13:04;16.80;99.90
16964;DHT22;8598;50.508;10.436;2023-10-09T12:15:31;16.70;99.90
16964;DHT22;8598;50.508;10.436;2023-10-09T12:18:04;16.90;99.90
16964;DHT22;8598;50.508;10.436;2023-10-09T12:20:34;17.10;99.90
16964;DHT22;8598;50.508;10.436;2023-10-09T12:23:02;17.10;99.90
16964;DHT22;8598;50.508;10.436;2023-10-09T12:25:32;17.10;99.90
16964;DHT22;8598;50.508;10.436;2023-10-09T12:27:59;17.10;99.90
16964;DHT22;8598;50.508;10.436;2023-10-09T12:30:27;17.10;99.90
16964;DHT22;8598;50.508;10.436;2023-10-09T12:32:54;16.90;99.90
16964;DHT22;8598;50.508;10.436;2023-10-09T12:35:23;17.00;99.90
16964;DHT22;8598;50.508;10.436;2023-10-09T12:37:52;17.00;99.90
16964;DHT22;8598;50.508;10.436;2023-10-09T12:40:20;17.10;99.90
16964;DHT22;8598;50.508;10.436;2023-10-09T12:42:51;17.00;99.90
16964;DHT22;8598;50.508;10.436;2023-10-09T12:45:20;17.10;99.90
16964;DHT22;8598;50.508;10.436;2023-10-09T12:47:53;17.20;99.90
16964;DHT22;8598;50.508;10.436;2023-10-09T12:50:21;17.20;99.90
16964;DHT22;8598;50.508;10.436;2023-10-09T12:52:55;17.30;99.90
16964;DHT22;8598;50.508;10.436;2023-10-09T12:55:22;17.50;99.90
16964;DHT22;8598;50.508;10.436;2023-10-09T12:57:59;17.50;99.90
16964;DHT22;8598;50.508;10.436;2023-10-09T13:00:32;17.60;99.90
16964;DHT22;8598;50.508;10.436;2023-10-09T13:02:58;17.50;99.90
16964;DHT22;8598;50.508;10.436;2023-10-09T13:05:27;17.40;99.90
16964;DHT22;8598;50.508;10.436;2023-10-09T13:07:55;17.50;99.90
16964;DHT22;8598;50.508;10.436;2023-10-09T13:10:23;17.30;99.90
16964;DHT22;8598;50.508;10.436;2023-10-09T13:12:51;17.30;99.90
16964;DHT22;8598;50.508;10.436;2023-10-09T13:15:21;17.40;99.90
16964;DHT22;8598;50.508;10.436;2023-10-09T13:17:48;17.30;99.90
16964;DHT22;8598;50.508;10.436;2023-10-09T13:20:18;17.20;99.90
16964;DHT22;8598;50.508;10.436;2023-10-09T13:22:47;17.20;99.90
16964;DHT22;8598;50.508;10.436;2023-10-09T13:25:16;17.20;99.90
16964;DHT22;8598;50.508;10.436;2023-10-09T13:27:50;17.30;99.90
16964;DHT22;8598;50.508;10.436;2023-10-09T13:30:18;17.30;99.90
16964;DHT22;8598;50.508;10.436;2023-10-09T13:32:48;17.20;99.90
16964;DHT22;8598;50.508;10.436;2023-10-09T13:35:16;17.10;99.90
16964;DHT22;8598;50.508;10.436;2023-10-09T13:37:44;17.00;99.90
16964;DHT22;8598;50.508;10.436;2023-10-09T13:40:21;16.90;99.90
16964;DHT22;8598;50.508;10.436;2023-10-09T13:42:54;17.10;99.90
16964;DHT22;8598;50.508;10.436;2023-10-09T13:45:25;17.00;99.90
16964;DHT22;8598;50.508;10.436;2023-10-09T13:47:54;17.00;99.90
16964;DHT22;8598;50.508;10.436;2023-10-09T13:50:23;17.00;99.90
16964;DHT22;8598;50.508;10.436;2023-10-09T13:52:57;17.00;99.90
16964;DHT22;8598;50.508;10.436;2023-10-09T13:55:25;17.00;99.90
16964;DHT22;8598;50.508;10.436;2023-10-09T13:57:57;17.00;99.90
16964;DHT22;8598;50.508;10.436;2023-10-09T14:00:24;17.10;99.90
16964;DHT22;8598;50.508;10.436;2023-10-09T14:03:00;17.20;99.90
16964;DHT22;8598;50.508;10.436;2023-10-09T14:05:29;17.20;99.90
16964;DHT22;8598;50.508;10.436;2023-10-09T14:07:56;17.10;99.90
16964;DHT22;8598;50.508;10.436;2023-10-09T14:10:27;17.20;99.90
16964;DHT22;8598;50.508;10.436;2023-10-09T14:12:55;17.10;99.90
16964;DHT22;8598;50.508;10.436;2023-10-09T14:15:23;17.00;99.90
16964;DHT22;8598;50.508;10.436;2023-10-09T14:17:50;17.10;99.90
16964;DHT22;8598;50.508;10.436;2023-10-09T14:20:21;17.00;99.90
16964;DHT22;8598;50.508;10.436;2023-10-09T14:22:57;17.00;99.90
16964;DHT22;8598;50.508;10.436;2023-10-09T14:25:33;17.00;99.90
16964;DHT22;8598;50.508;10.436;2023-10-09T14:28:03;17.00;99.90
16964;DHT22;8598;50.508;10.436;2023-10-09T14:30:33;17.00;99.90
16964;DHT22;8598;50.508;10.436;2023-10-09T14:33:08;17.00;99.90
16964;DHT22;8598;50.508;10.436;2023-10-09T14:35:38;17.00;99.90
16964;DHT22;8598;50.508;10.436;2023-10-09T14:38:05;17.00;99.90
16964;DHT22;8598;50.508;10.436;2023-10-09T14:40:41;17.00;99.90
16964;DHT22;8598;50.508;10.436;2023-10-09T14:43:08;16.90;99.90
16964;DHT22;8598;50.508;10.436;2023-10-09T14:45:44;16.80;99.90
16964;DHT22;8598;50.508;10.436;2023-10-09T14:48:14;16.80;99.90
16964;DHT22;8598;50.508;10.436;2023-10-09T14:50:46;16.90;99.90
16964;DHT22;8598;50.508;10.436;2023-10-09T14:53:14;16.90;99.90
16964;DHT22;8598;50.508;10.436;2023-10-09T14:55:43;17.00;99.90
16964;DHT22;8598;50.508;10.436;2023-10-09T14:58:11;17.00;99.90
16964;DHT22;8598;50.508;10.436;2023-10-09T15:00:38;17.10;99.90
16964;DHT22;8598;50.508;10.436;2023-10-09T15:03:12;17.10;99.90
16964;DHT22;8598;50.508;10.436;2023-10-09T15:05:41;17.10;99.90
16964;DHT22;8598;50.508;10.436;2023-10-09T15:08:09;17.10;99.90
16964;DHT22;8598;50.508;10.436;2023-10-09T15:10:45;17.10;99.90
16964;DHT22;8598;50.508;10.436;2023-10-09T15:13:13;17.10;99.90
16964;DHT22;8598;50.508;10.436;2023-10-09T15:15:42;17.10;99.90
16964;DHT22;8598;50.508;10.436;2023-10-09T15:18:09;17.10;99.90
16964;DHT22;8598;50.508;10.436;2023-10-09T15:20:39;17.00;99.90
16964;DHT22;8598;50.508;10.436;2023-10-09T15:23:06;17.00;99.90
16964;DHT22;8598;50.508;10.436;2023-10-09T15:25:34;16.90;99.90
16964;DHT22;8598;50.508;10.436;2023-10-09T15:28:06;16.90;99.90
16964;DHT22;8598;50.508;10.436;2023-10-09T15:30:35;16.80;99.90
16964;DHT22;8598;50.508;10.436;2023-10-09T15:33:04;16.70;99.90
16964;DHT22;8598;50.508;10.436;2023-10-09T15:35:31;16.70;99.90
16964;DHT22;8598;50.508;10.436;2023-10-09T15:37:59;16.70;99.90
16964;DHT22;8598;50.508;10.436;2023-10-09T15:40:28;16.60;99.90
16964;DHT22;8598;50.508;10.436;2023-10-09T15:42:59;16.60;99.90
16964;DHT22;8598;50.508;10.436;2023-10-09T15:45:27;16.50;99.90
16964;DHT22;8598;50.508;10.436;2023-10-09T15:47:55;16.50;99.90
16964;DHT22;8598;50.508;10.436;2023-10-09T15:50:22;16.40;99.90
16964;DHT22;8598;50.508;10.436;2023-10-09T15:52:51;16.40;99.90
16964;DHT22;8598;50.508;10.436;2023-10-09T15:55:19;16.40;99.90
16964;DHT22;8598;50.508;10.436;2023-10-09T15:57:50;16.40;99.90
16964;DHT22;8598;50.508;10.436;2023-10-09T16:00:20;16.30;99.90
16964;DHT22;8598;50.508;10.436;2023-10-09T16:02:55;16.20;99.90
16964;DHT22;8598;50.508;10.436;2023-10-09T16:05:22;16.10;99.90
16964;DHT22;8598;50.508;10.436;2023-10-09T16:07:52;16.00;99.90
16964;DHT22;8598;50.508;10.436;2023-10-09T16:10:20;15.90;99.90
16964;DHT22;8598;50.508;10.436;2023-10-09T16:12:47;15.90;99.90
16964;DHT22;8598;50.508;10.436;2023-10-09T16:15:17;15.80;99.90
16964;DHT22;8598;50.508;10.436;2023-10-09T16:17:46;15.70;99.90